createdAt,value
2023-03-05T00:01:55.685Z,101454.69
2023-03-05T00:03:59.448Z,101457.56
2023-03-05T00:06:03.020Z,101462.31
2023-03-05T00:08:06.389Z,101454.53
2023-03-05T00:10:10.636Z,101462.31
2023-03-05T00:12:14.101Z,101455.16
2023-03-05T00:14:17.583Z,101452.50
2023-03-05T00:16:21.503Z,101451.66
2023-03-05T00:18:26.347Z,101457.22
2023-03-05T00:20:29.668Z,101444.63
2023-03-05T00:22:35.022Z,101448.91
2023-03-05T00:24:38.352Z,101444.47
2023-03-05T00:26:42.269Z,101445.91
2023-03-05T00:28:47.411Z,101449.47
2023-03-05T00:30:50.875Z,101445.56
2023-03-05T00:32:54.182Z,101444.75
2023-03-05T00:34:58.955Z,101444.75
2023-03-05T00:37:02.327Z,101443.88
2023-03-05T00:39:05.703Z,101443.38
2023-03-05T00:41:10.080Z,101440.72
2023-03-05T00:43:13.371Z,101442.75
2023-03-05T00:45:16.705Z,101435.25
2023-03-05T00:47:20.039Z,101439.63
2023-03-05T00:49:23.471Z,101434.38
2023-03-05T00:51:28.534Z,101429.00
2023-03-05T00:53:32.039Z,101409.56
2023-03-05T00:55:36.102Z,101429.25
2023-03-05T00:57:39.591Z,101427.94
2023-03-05T00:59:42.908Z,101431.25
2023-03-05T01:01:47.056Z,101418.59
2023-03-05T01:03:50.567Z,101420.84
2023-03-05T01:05:53.910Z,101424.84
2023-03-05T01:07:59.062Z,101413.25
2023-03-05T01:10:02.840Z,101413.78
2023-03-05T01:12:06.693Z,101415.22
2023-03-05T01:14:10.382Z,101416.13
2023-03-05T01:16:13.880Z,101387.75
2023-03-05T01:18:17.664Z,101411.56
2023-03-05T01:20:23.192Z,101405.66
2023-03-05T01:22:26.510Z,101412.19
2023-03-05T01:24:31.687Z,101408.00
2023-03-05T01:26:35.389Z,101400.06
2023-03-05T01:28:38.845Z,101393.44
2023-03-05T01:30:42.176Z,101399.91
2023-03-05T01:32:45.756Z,101387.13
2023-03-05T01:34:49.338Z,101394.72
2023-03-05T01:36:52.612Z,101383.72
2023-03-05T01:38:55.983Z,101385.59
2023-03-05T01:41:00.667Z,101384.25
2023-03-05T01:43:20.255Z,101378.28
2023-03-05T01:45:24.237Z,101374.91
2023-03-05T01:47:27.746Z,101376.22
2023-03-05T01:49:35.426Z,101377.28
2023-03-05T01:51:42.958Z,101382.00
2023-03-05T01:53:48.845Z,101374.47
2023-03-05T01:55:52.164Z,101376.28
2023-03-05T01:58:01.470Z,101368.41
2023-03-05T02:00:09.463Z,101364.34
2023-03-05T02:02:18.569Z,101369.63
2023-03-05T02:04:24.849Z,101363.00
2023-03-05T02:06:28.463Z,101363.50
2023-03-05T02:08:33.889Z,101351.97
2023-03-05T02:10:39.334Z,101333.09
2023-03-05T02:12:43.917Z,101354.66
2023-03-05T02:14:51.846Z,101349.66
2023-03-05T02:16:55.297Z,101345.44
2023-03-05T02:18:58.662Z,101350.00
2023-03-05T02:21:05.342Z,101331.53
2023-03-05T02:23:09.139Z,101343.91
2023-03-05T02:25:18.205Z,101340.25
2023-03-05T02:27:27.307Z,101338.28
2023-03-05T02:29:32.760Z,101337.25
2023-03-05T02:31:36.277Z,101336.53
2023-03-05T02:33:39.732Z,101335.72
2023-03-05T02:35:43.638Z,101322.75
2023-03-05T02:37:48.500Z,101321.19
2023-03-05T02:39:51.765Z,101322.25
2023-03-05T02:41:55.220Z,101326.34
2023-03-05T02:43:58.709Z,101321.34
2023-03-05T02:46:02.753Z,101298.00
2023-03-05T02:48:07.058Z,101277.22
2023-03-05T02:50:12.220Z,101313.69
2023-03-05T02:52:16.216Z,101318.88
2023-03-05T02:54:21.804Z,101318.88
2023-03-05T02:56:25.270Z,101321.91
2023-03-05T02:58:30.184Z,101279.34
2023-03-05T03:00:34.198Z,101306.66
2023-03-05T03:02:37.793Z,101311.22
2023-03-05T03:04:41.653Z,101306.09
2023-03-05T03:06:44.963Z,101312.06
2023-03-05T03:08:48.280Z,101302.91
2023-03-05T03:10:52.990Z,101304.31
2023-03-05T03:12:56.312Z,101299.22
2023-03-05T03:15:02.118Z,101295.41
2023-03-05T03:17:05.825Z,101303.25
2023-03-05T03:19:09.215Z,101293.00
2023-03-05T03:21:18.708Z,101264.50
2023-03-05T03:23:21.996Z,101288.06
2023-03-05T03:25:25.661Z,101242.56
2023-03-05T03:27:30.444Z,101276.06
2023-03-05T03:29:34.047Z,101276.97
2023-03-05T03:31:40.104Z,101278.09
2023-03-05T03:33:43.434Z,101272.13
2023-03-05T03:35:47.121Z,101269.81
2023-03-05T03:37:50.619Z,101272.63
2023-03-05T03:39:54.167Z,101271.91
2023-03-05T03:41:57.647Z,101261.31
2023-03-05T03:44:03.315Z,101265.44
2023-03-05T03:46:08.021Z,101266.31
2023-03-05T03:48:11.946Z,101254.25
2023-03-05T03:50:15.422Z,101221.22
2023-03-05T03:52:18.746Z,101253.31
2023-03-05T03:54:23.484Z,101257.75
2023-03-05T03:56:27.004Z,101252.88
2023-03-05T03:58:30.635Z,101253.75
2023-03-05T04:00:35.496Z,101256.59
2023-03-05T04:02:39.043Z,101249.63
2023-03-05T04:04:42.459Z,101253.53
2023-03-05T04:06:45.877Z,101247.47
2023-03-05T04:08:49.212Z,101248.50
2023-03-05T04:10:52.509Z,101238.75
2023-03-05T04:12:55.843Z,101152.34
2023-03-05T04:14:59.589Z,101242.59
2023-03-05T04:17:04.918Z,101243.19
2023-03-05T04:19:09.177Z,101246.44
2023-03-05T04:21:13.241Z,101234.84
2023-03-05T04:23:17.084Z,101228.38
2023-03-05T04:25:20.454Z,101232.63
2023-03-05T04:27:27.320Z,101237.91
2023-03-05T04:29:30.563Z,101238.34
2023-03-05T04:31:34.016Z,101227.03
2023-03-05T04:33:38.746Z,101226.69
2023-03-05T04:35:42.391Z,101224.13
2023-03-05T04:37:45.680Z,101230.06
2023-03-05T04:39:49.132Z,101219.50
2023-03-05T04:41:52.631Z,101218.78
2023-03-05T04:43:55.910Z,101222.38
2023-03-05T04:45:59.621Z,101210.88
2023-03-05T04:48:03.323Z,101212.31
2023-03-05T04:50:09.835Z,101213.09
2023-03-05T04:52:14.229Z,101203.31
2023-03-05T04:54:17.744Z,101207.75
2023-03-05T04:56:22.473Z,101211.34
2023-03-05T04:58:26.533Z,101202.59
2023-03-05T05:00:29.900Z,101200.84
2023-03-05T05:02:33.475Z,101201.69
2023-03-05T05:04:36.934Z,101201.19
2023-03-05T05:06:41.739Z,101198.09
2023-03-05T05:08:45.052Z,101194.81
2023-03-05T05:10:56.706Z,101179.44
2023-03-05T05:13:00.058Z,101194.00
2023-03-05T05:15:04.713Z,101194.25
2023-03-05T05:17:08.091Z,101182.06
2023-03-05T05:19:11.639Z,101194.53
2023-03-05T05:21:15.998Z,101155.69
2023-03-05T05:23:20.958Z,101185.31
2023-03-05T05:25:24.376Z,101186.41
2023-03-05T05:27:27.685Z,101180.19
2023-03-05T05:29:30.998Z,101188.63
2023-03-05T05:31:34.316Z,101136.41
2023-03-05T05:33:38.008Z,101173.09
2023-03-05T05:35:41.386Z,101177.59
2023-03-05T05:37:44.749Z,101171.56
2023-03-05T05:39:50.337Z,101174.16
2023-03-05T05:41:54.826Z,101187.16
2023-03-05T05:43:58.140Z,101189.41
2023-03-05T05:46:02.472Z,101129.97
2023-03-05T05:48:06.021Z,101185.94
2023-03-05T05:50:10.424Z,101181.50
2023-03-05T05:52:14.240Z,101186.94
2023-03-05T05:54:17.559Z,101183.34
2023-03-05T05:56:22.743Z,101184.88
2023-03-05T05:58:26.111Z,101171.94
2023-03-05T06:00:29.735Z,101178.75
2023-03-05T06:02:33.009Z,101176.16
2023-03-05T06:04:36.965Z,101179.06
2023-03-05T06:06:40.560Z,101162.31
2023-03-05T06:08:44.451Z,101165.25
2023-03-05T06:10:54.914Z,101157.56
2023-03-05T06:12:59.567Z,101158.91
2023-03-05T06:15:02.906Z,101153.38
2023-03-05T06:17:06.268Z,101149.53
2023-03-05T06:19:10.324Z,101147.31
2023-03-05T06:21:15.868Z,101147.16
2023-03-05T06:23:19.210Z,101147.09
2023-03-05T06:25:22.501Z,101092.59
2023-03-05T06:27:25.759Z,101141.19
2023-03-05T06:29:30.446Z,101151.22
2023-03-05T06:31:35.591Z,101145.06
2023-03-05T06:33:41.135Z,101151.94
2023-03-05T06:35:44.502Z,101152.44
2023-03-05T06:37:47.888Z,101152.94
2023-03-05T06:39:51.353Z,101149.09
2023-03-05T06:41:54.705Z,101162.97
2023-03-05T06:43:59.950Z,101156.13
2023-03-05T06:46:06.136Z,101163.19
2023-03-05T06:48:09.622Z,101162.47
2023-03-05T06:50:13.620Z,101116.06
2023-03-05T06:52:16.985Z,101162.38
2023-03-05T06:54:20.561Z,101174.69
2023-03-05T06:56:24.266Z,101168.53
2023-03-05T06:58:27.770Z,101168.47
2023-03-05T07:00:31.386Z,101168.53
2023-03-05T07:02:36.179Z,101166.28
2023-03-05T07:04:39.513Z,101168.03
2023-03-05T07:06:43.353Z,101172.44
2023-03-05T07:08:46.854Z,101164.56
2023-03-05T07:10:50.273Z,101165.56
2023-03-05T07:12:53.520Z,101170.81
2023-03-05T07:14:56.866Z,101160.53
2023-03-05T07:17:00.181Z,101165.88
2023-03-05T07:19:07.373Z,101153.56
2023-03-05T07:21:13.058Z,101160.78
2023-03-05T07:23:16.468Z,101162.72
2023-03-05T07:25:21.567Z,101152.53
2023-03-05T07:27:25.531Z,101160.41
2023-03-05T07:29:29.320Z,101147.44
2023-03-05T07:31:32.642Z,101146.72
2023-03-05T07:33:37.105Z,101151.78
2023-03-05T07:35:42.637Z,101149.88
2023-03-05T07:37:45.986Z,101148.88
2023-03-05T07:39:49.340Z,101147.13
2023-03-05T07:41:52.856Z,101148.09
2023-03-05T07:44:04.204Z,101143.72
2023-03-05T07:46:08.624Z,101147.34
2023-03-05T07:48:15.349Z,101144.88
2023-03-05T07:50:21.875Z,101142.50
2023-03-05T07:52:26.986Z,101140.66
2023-03-05T07:54:30.321Z,101137.63
2023-03-05T07:56:36.180Z,101086.72
2023-03-05T07:58:39.866Z,101102.13
2023-03-05T08:00:43.259Z,101137.56
2023-03-05T08:02:47.169Z,101135.88
2023-03-05T08:04:50.721Z,101142.81
2023-03-05T08:06:54.599Z,101134.34
2023-03-05T08:09:00.445Z,101118.91
2023-03-05T08:11:05.552Z,101037.16
2023-03-05T08:13:08.887Z,101132.00
2023-03-05T08:15:12.889Z,101137.91
2023-03-05T08:17:16.312Z,101120.31
2023-03-05T08:19:20.243Z,101077.69
2023-03-05T08:21:26.920Z,101098.13
2023-03-05T08:23:30.303Z,101121.59
2023-03-05T08:25:34.984Z,101115.81
2023-03-05T08:27:41.122Z,101102.19
2023-03-05T08:29:44.502Z,101115.28
2023-03-05T08:31:48.544Z,101106.63
2023-03-05T08:33:54.294Z,101112.59
2023-03-05T08:35:57.698Z,101104.94
2023-03-05T08:38:01.047Z,101095.38
2023-03-05T08:40:05.674Z,101094.59
2023-03-05T08:42:10.493Z,101095.66
2023-03-05T08:44:14.093Z,101099.41
2023-03-05T08:46:17.993Z,101056.34
2023-03-05T08:48:21.612Z,101099.13
2023-03-05T08:50:25.997Z,101085.66
2023-03-05T08:52:29.409Z,101091.38
2023-03-05T08:54:33.785Z,101095.06
2023-03-05T08:56:37.938Z,101092.25
2023-03-05T08:58:42.917Z,101086.25
2023-03-05T09:00:46.294Z,101078.16
2023-03-05T09:02:49.658Z,101084.13
2023-03-05T09:04:52.991Z,101079.72
2023-03-05T09:06:56.532Z,101074.19
2023-03-05T09:08:59.835Z,101077.34
2023-03-05T09:11:04.165Z,101078.78
2023-03-05T09:13:07.771Z,101071.00
2023-03-05T09:15:13.462Z,101073.69
2023-03-05T09:17:16.882Z,101045.84
2023-03-05T09:19:20.804Z,101068.25
2023-03-05T09:21:24.132Z,101066.19
2023-03-05T09:23:27.556Z,101069.88
2023-03-05T09:25:30.921Z,101066.22
2023-03-05T09:27:34.633Z,101064.69
2023-03-05T09:29:37.973Z,101062.03
2023-03-05T09:31:43.974Z,101052.63
2023-03-05T09:33:49.293Z,101051.59
2023-03-05T09:35:52.876Z,101047.31
2023-03-05T09:37:56.306Z,101056.66
2023-03-05T09:39:59.894Z,101000.44
2023-03-05T09:42:29.372Z,101056.44
2023-03-05T09:44:42.614Z,101038.25
2023-03-05T09:46:54.721Z,101039.38
2023-03-05T09:49:11.704Z,101036.34
2023-03-05T09:51:21.380Z,101028.69
2023-03-05T09:53:37.391Z,101033.53
2023-03-05T09:55:44.676Z,101027.84
2023-03-05T09:57:54.764Z,101029.06
2023-03-05T10:00:02.492Z,101027.50
2023-03-05T10:02:20.770Z,100905.69
2023-03-05T10:04:27.703Z,101035.06
2023-03-05T10:06:33.785Z,101036.75
2023-03-05T10:08:49.718Z,101036.03
2023-03-05T10:10:54.985Z,101041.31
2023-03-05T10:13:03.174Z,101002.69
2023-03-05T10:15:13.854Z,101024.97
2023-03-05T10:17:50.020Z,101023.88
2023-03-05T10:20:13.655Z,101018.84
2023-03-05T10:22:22.540Z,101026.47
2023-03-05T10:24:39.792Z,101008.09
2023-03-05T10:26:59.747Z,101012.78
2023-03-05T10:29:14.519Z,101008.91
2023-03-05T10:31:31.599Z,100981.69
2023-03-05T10:33:44.272Z,101008.44
2023-03-05T10:36:15.159Z,101006.72
2023-03-05T10:38:59.877Z,101001.53
2023-03-05T10:41:13.339Z,101002.44
2023-03-05T10:43:27.894Z,101003.59
2023-03-05T10:45:35.492Z,100988.94
2023-03-05T10:47:46.387Z,100997.41
2023-03-05T10:49:53.060Z,100976.50
2023-03-05T10:52:03.039Z,100996.22
2023-03-05T10:54:13.192Z,100994.66
2023-03-05T10:56:17.238Z,100994.44
2023-03-05T10:58:20.596Z,100985.06
2023-03-05T11:00:26.397Z,100987.25
2023-03-05T11:02:29.902Z,100979.97
2023-03-05T11:04:36.958Z,100975.66
2023-03-05T11:06:45.681Z,100977.03
2023-03-05T11:08:49.043Z,100998.00
2023-03-05T11:11:05.320Z,100971.81
2023-03-05T11:13:25.743Z,100970.03
2023-03-05T11:15:31.121Z,100940.75
2023-03-05T11:17:37.439Z,100975.75
2023-03-05T11:19:40.845Z,100967.25
2023-03-05T11:21:46.537Z,100964.50
2023-03-05T11:24:05.844Z,100964.34
2023-03-05T11:26:23.158Z,100962.06
2023-03-05T11:28:33.255Z,100948.75
2023-03-05T11:30:38.278Z,100957.19
2023-03-05T11:32:41.822Z,100947.94
2023-03-05T11:34:45.429Z,100958.44
2023-03-05T11:37:03.635Z,100946.94
2023-03-05T11:39:15.936Z,100951.38
2023-03-05T11:41:24.164Z,100950.13
2023-03-05T11:43:28.322Z,100928.72
2023-03-05T11:45:34.021Z,100944.22
2023-03-05T11:47:45.213Z,100943.66
2023-03-05T11:49:51.661Z,100891.91
2023-03-05T11:52:06.860Z,100948.34
2023-03-05T11:54:16.897Z,100932.66
2023-03-05T11:56:25.229Z,100934.97
2023-03-05T11:58:36.474Z,100929.34
2023-03-05T12:00:44.041Z,100933.31
2023-03-05T12:02:53.975Z,100919.13
2023-03-05T12:04:59.369Z,100924.19
2023-03-05T12:07:04.805Z,100907.66
2023-03-05T12:09:13.610Z,100910.25
2023-03-05T12:11:21.629Z,100912.28
2023-03-05T12:13:30.335Z,100903.66
2023-03-05T12:15:43.571Z,100894.19
2023-03-05T12:17:54.749Z,100888.50
2023-03-05T12:20:04.845Z,100894.13
2023-03-05T12:22:18.162Z,100886.28
2023-03-05T12:24:36.543Z,100879.75
2023-03-05T12:27:06.822Z,100873.66
2023-03-05T12:29:28.403Z,100871.81
2023-03-05T12:31:39.706Z,100864.28
2023-03-05T12:33:44.462Z,100857.94
2023-03-05T12:35:49.522Z,100866.41
2023-03-05T12:38:25.709Z,100853.94
2023-03-05T12:40:30.994Z,100850.56
2023-03-05T12:42:52.470Z,100750.81
2023-03-05T12:45:40.660Z,100845.75
2023-03-05T12:47:44.985Z,100833.94
2023-03-05T12:49:49.633Z,100830.22
2023-03-05T12:51:54.644Z,100828.22
2023-03-05T12:54:17.716Z,100833.66
2023-03-05T12:56:27.547Z,100830.69
2023-03-05T12:58:40.286Z,100827.28
2023-03-05T13:00:47.239Z,100822.38
2023-03-05T13:02:58.076Z,100819.78
2023-03-05T13:05:05.592Z,100819.91
2023-03-05T13:07:17.083Z,100782.13
2023-03-05T13:09:27.561Z,100808.19
2023-03-05T13:11:34.305Z,100803.56
2023-03-05T13:13:42.688Z,100804.97
2023-03-05T13:15:47.677Z,100800.97
2023-03-05T13:17:57.042Z,100796.84
2023-03-05T13:20:02.001Z,100799.72
2023-03-05T13:22:12.435Z,100781.56
2023-03-05T13:24:18.700Z,100794.81
2023-03-05T13:26:23.555Z,100786.00
2023-03-05T13:28:27.666Z,100785.00
2023-03-05T13:30:34.692Z,100782.78
2023-03-05T13:32:38.292Z,100787.13
2023-03-05T13:34:48.145Z,100774.53
2023-03-05T13:36:58.137Z,100777.00
2023-03-05T13:39:03.849Z,100773.53
2023-03-05T13:41:20.888Z,100773.78
2023-03-05T13:43:25.556Z,100768.94
2023-03-05T13:45:30.521Z,100764.78
2023-03-05T13:47:36.577Z,100763.38
2023-03-05T13:49:40.040Z,100771.16
2023-03-05T13:51:44.414Z,100762.31
2023-03-05T13:53:48.433Z,100762.84
2023-03-05T13:55:54.452Z,100757.34
2023-03-05T13:57:58.891Z,100753.59
2023-03-05T14:00:05.288Z,100754.47
2023-03-05T14:02:18.421Z,100752.22
2023-03-05T14:04:25.054Z,100748.69
2023-03-05T14:06:30.844Z,100710.53
2023-03-05T14:08:34.420Z,100742.53
2023-03-05T14:10:39.193Z,100738.94
2023-03-05T14:12:43.854Z,100730.97
2023-03-05T14:14:47.361Z,100731.91
2023-03-05T14:16:52.179Z,100728.31
2023-03-05T14:18:56.933Z,100728.44
2023-03-05T14:21:03.911Z,100730.13
2023-03-05T14:23:27.325Z,100717.50
2023-03-05T14:25:36.471Z,100721.50
2023-03-05T14:27:40.356Z,100718.69
2023-03-05T14:29:46.858Z,100713.56
2023-03-05T14:31:54.241Z,100675.38
2023-03-05T14:34:02.918Z,100705.16
2023-03-05T14:36:07.527Z,100659.41
2023-03-05T14:38:23.406Z,100708.28
2023-03-05T14:40:30.164Z,100696.72
2023-03-05T14:42:38.396Z,100692.47
2023-03-05T14:44:43.564Z,100687.81
2023-03-05T14:46:50.515Z,100683.25
2023-03-05T14:48:55.452Z,100685.28
2023-03-05T14:51:01.128Z,100686.59
2023-03-05T14:53:09.238Z,100681.47
2023-03-05T14:55:16.388Z,100674.38
2023-03-05T14:57:22.268Z,100683.25
2023-03-05T14:59:25.554Z,100685.00
2023-03-05T15:01:29.263Z,100675.19
2023-03-05T15:03:33.026Z,100667.97
2023-03-05T15:05:38.999Z,100666.00
2023-03-05T15:07:42.724Z,100652.81
2023-03-05T15:09:46.352Z,100647.81
2023-03-05T15:11:50.047Z,100648.75
2023-03-05T15:13:53.387Z,100643.13
2023-03-05T15:15:56.905Z,100646.50
2023-03-05T15:18:01.336Z,100640.78
2023-03-05T15:20:09.892Z,100643.72
2023-03-05T15:22:15.372Z,100634.97
2023-03-05T15:24:18.865Z,100643.91
2023-03-05T15:26:22.570Z,100631.69
2023-03-05T15:28:25.885Z,100628.34
2023-03-05T15:30:31.682Z,100626.78
2023-03-05T15:32:35.310Z,100629.63
2023-03-05T15:34:38.722Z,100618.75
2023-03-05T15:36:42.059Z,100617.00
2023-03-05T15:38:47.990Z,100617.06
2023-03-05T15:40:52.332Z,100614.59
2023-03-05T15:42:57.713Z,100591.69
2023-03-05T15:45:01.090Z,100602.22
2023-03-05T15:47:04.527Z,100553.66
2023-03-05T15:49:07.983Z,100601.59
2023-03-05T15:51:11.318Z,100599.03
2023-03-05T15:53:17.850Z,100559.22
2023-03-05T15:55:23.669Z,100595.06
2023-03-05T15:57:28.264Z,100588.34
2023-03-05T15:59:31.713Z,100540.94
2023-03-05T16:01:35.419Z,100577.50
2023-03-05T16:03:39.026Z,100583.34
2023-03-05T16:05:42.932Z,100586.06
2023-03-05T16:07:50.226Z,100582.94
2023-03-05T16:09:57.486Z,100540.38
2023-03-05T16:12:02.872Z,100575.53
2023-03-05T16:14:09.834Z,100573.91
2023-03-05T16:16:14.150Z,100569.59
2023-03-05T16:18:18.722Z,100572.53
2023-03-05T16:20:22.866Z,100561.31
2023-03-05T16:22:26.270Z,100564.03
2023-03-05T16:24:29.730Z,100559.09
2023-03-05T16:26:35.861Z,100565.28
2023-03-05T16:28:40.572Z,100557.47
2023-03-05T16:30:44.432Z,100552.91
2023-03-05T16:32:47.751Z,100543.81
2023-03-05T16:34:51.131Z,100549.00
2023-03-05T16:36:54.442Z,100548.88
2023-03-05T16:38:59.913Z,100549.44
2023-03-05T16:41:08.376Z,100550.31
2023-03-05T16:43:12.094Z,100544.03
2023-03-05T16:45:16.845Z,100546.03
2023-03-05T16:47:20.730Z,100541.94
2023-03-05T16:49:24.105Z,100540.50
2023-03-05T16:51:27.643Z,100538.50
2023-03-05T16:53:31.277Z,100530.06
2023-03-05T16:55:34.768Z,100540.84
2023-03-05T16:57:39.659Z,100541.06
2023-03-05T16:59:43.504Z,100530.16
2023-03-05T17:01:48.974Z,100534.84
2023-03-05T17:03:53.564Z,100530.06
2023-03-05T17:05:56.987Z,100529.25
2023-03-05T17:08:02.138Z,100527.09
2023-03-05T17:10:06.569Z,100531.44
2023-03-05T17:12:10.019Z,100525.63
2023-03-05T17:14:13.737Z,100529.09
2023-03-05T17:16:19.121Z,100481.56
2023-03-05T17:18:23.881Z,100520.94
2023-03-05T17:20:27.221Z,100519.31
2023-03-05T17:22:30.553Z,100494.38
2023-03-05T17:24:33.964Z,100519.97
2023-03-05T17:26:37.681Z,100521.22
2023-03-05T17:28:41.895Z,100519.97
2023-03-05T17:30:45.308Z,100508.81
2023-03-05T17:32:48.677Z,100515.06
2023-03-05T17:34:55.724Z,100514.94
2023-03-05T17:36:59.125Z,100521.06
2023-03-05T17:39:03.040Z,100509.00
2023-03-05T17:41:06.614Z,100513.66
2023-03-05T17:43:09.963Z,100494.94
2023-03-05T17:45:13.873Z,100503.78
2023-03-05T17:47:17.529Z,100517.59
2023-03-05T17:49:20.894Z,100510.66
2023-03-05T17:51:25.675Z,100514.00
2023-03-05T17:53:29.248Z,100516.38
2023-03-05T17:55:33.176Z,100514.94
2023-03-05T17:57:36.748Z,100522.81
2023-03-05T17:59:40.111Z,100514.50
2023-03-05T18:01:43.451Z,100512.06
2023-03-05T18:03:46.814Z,100500.56
2023-03-05T18:05:50.197Z,100514.38
2023-03-05T18:07:55.838Z,100519.94
2023-03-05T18:09:59.262Z,100518.16
2023-03-05T18:12:02.941Z,100499.81
2023-03-05T18:14:06.476Z,100495.75
2023-03-05T18:16:09.931Z,100504.56
2023-03-05T18:18:13.228Z,100493.78
2023-03-05T18:20:28.046Z,100469.38
2023-03-05T18:22:31.480Z,100496.81
2023-03-05T18:24:36.449Z,100506.09
2023-03-05T18:26:40.154Z,100473.00
2023-03-05T18:28:43.584Z,100495.53
2023-03-05T18:30:47.837Z,100496.91
2023-03-05T18:32:51.394Z,100494.19
2023-03-05T18:34:54.755Z,100486.28
2023-03-05T18:37:00.330Z,100492.28
2023-03-05T18:39:04.117Z,100494.97
2023-03-05T18:41:08.930Z,100485.59
2023-03-05T18:43:13.080Z,100490.09
2023-03-05T18:45:18.398Z,100485.91
2023-03-05T18:47:22.053Z,100471.88
2023-03-05T18:49:27.211Z,100486.09
2023-03-05T18:51:30.685Z,100489.91
2023-03-05T18:53:34.035Z,100480.41
2023-03-05T18:55:37.369Z,100481.78
2023-03-05T18:57:42.088Z,100478.44
2023-03-05T18:59:45.728Z,100477.31
2023-03-05T19:01:49.112Z,100467.16
2023-03-05T19:03:52.570Z,100462.88
2023-03-05T19:05:56.021Z,100472.75
2023-03-05T19:07:59.450Z,100484.63
2023-03-05T19:10:07.245Z,100475.84
2023-03-05T19:12:10.601Z,100468.91
2023-03-05T19:14:15.356Z,100467.97
2023-03-05T19:16:20.664Z,100470.69
2023-03-05T19:18:26.410Z,100464.91
2023-03-05T19:20:29.825Z,100460.50
2023-03-05T19:22:33.653Z,100457.09
2023-03-05T19:24:38.110Z,100449.72
2023-03-05T19:26:42.447Z,100461.78
2023-03-05T19:28:45.885Z,100459.81
2023-03-05T19:30:50.996Z,100414.44
2023-03-05T19:32:54.368Z,100462.03
2023-03-05T19:34:58.785Z,100448.59
2023-03-05T19:37:02.182Z,100446.97
2023-03-05T19:39:05.840Z,100453.53
2023-03-05T19:41:10.930Z,100458.50
2023-03-05T19:43:14.273Z,100452.69
2023-03-05T19:45:17.745Z,100444.84
2023-03-05T19:47:24.146Z,100447.28
2023-03-05T19:49:28.136Z,100437.72
2023-03-05T19:51:31.480Z,100447.22
2023-03-05T19:53:34.784Z,100447.22
2023-03-05T19:55:40.390Z,100438.19
2023-03-05T19:57:44.190Z,100440.25
2023-03-05T19:59:47.543Z,100448.97
2023-03-05T20:01:51.145Z,100438.44
2023-03-05T20:03:57.334Z,100428.84
2023-03-05T20:06:00.743Z,100344.75
2023-03-05T20:08:04.391Z,100431.28
2023-03-05T20:10:08.169Z,100431.59
2023-03-05T20:12:11.901Z,100426.34
2023-03-05T20:14:15.593Z,100429.59
2023-03-05T20:16:21.008Z,100425.53
2023-03-05T20:18:24.698Z,100426.50
2023-03-05T20:20:30.915Z,100426.75
2023-03-05T20:22:34.283Z,100424.94
2023-03-05T20:24:37.616Z,100428.47
2023-03-05T20:26:43.202Z,100414.25
2023-03-05T20:28:47.134Z,100415.50
2023-03-05T20:30:54.479Z,100419.56
2023-03-05T20:32:57.883Z,100410.63
2023-03-05T20:35:01.296Z,100405.44
2023-03-05T20:37:06.083Z,100403.44
2023-03-05T20:39:09.604Z,100403.22
2023-03-05T20:41:15.133Z,100405.91
2023-03-05T20:43:19.049Z,100403.84
2023-03-05T20:45:22.385Z,100406.44
2023-03-05T20:47:37.326Z,100398.94
2023-03-05T20:49:40.653Z,100397.16
2023-03-05T20:51:44.096Z,100398.84
2023-03-05T20:53:48.808Z,100359.06
2023-03-05T20:55:52.182Z,100397.38
2023-03-05T20:57:56.207Z,100392.47
2023-03-05T21:00:00.526Z,100381.88
2023-03-05T21:02:03.912Z,100386.38
2023-03-05T21:04:07.630Z,100371.66
2023-03-05T21:06:11.094Z,100385.91
2023-03-05T21:08:14.506Z,100379.25
2023-03-05T21:10:19.971Z,100370.53
2023-03-05T21:12:23.347Z,100371.16
2023-03-05T21:14:26.686Z,100376.28
2023-03-05T21:16:30.081Z,100375.44
2023-03-05T21:18:33.437Z,100326.63
2023-03-05T21:20:43.047Z,100368.97
2023-03-05T21:22:46.677Z,100368.22
2023-03-05T21:25:02.042Z,100357.00
2023-03-05T21:27:06.727Z,100357.13
2023-03-05T21:29:10.115Z,100352.81
2023-03-05T21:31:17.619Z,100291.63
2023-03-05T21:33:23.067Z,100348.47
2023-03-05T21:35:26.753Z,100342.63
2023-03-05T21:37:30.184Z,100338.13
2023-03-05T21:39:33.510Z,100333.50
2023-03-05T21:41:36.821Z,100316.94
2023-03-05T21:43:42.101Z,100330.75
2023-03-05T21:45:47.109Z,100332.16
2023-03-05T21:47:52.692Z,100281.75
2023-03-05T21:49:56.691Z,100321.47
2023-03-05T21:52:08.942Z,100316.28
2023-03-05T21:54:12.324Z,100325.22
2023-03-05T21:56:23.733Z,100296.00
2023-03-05T21:58:27.128Z,100319.50
2023-03-05T22:00:31.852Z,100272.59
2023-03-05T22:02:35.244Z,100313.75
2023-03-05T22:04:38.612Z,100310.47
2023-03-05T22:06:41.938Z,100307.38
2023-03-05T22:08:45.430Z,100309.44
2023-03-05T22:10:49.163Z,100298.13
2023-03-05T22:12:57.085Z,100296.91
2023-03-05T22:15:02.264Z,100286.81
2023-03-05T22:17:06.953Z,100294.59
2023-03-05T22:19:11.357Z,100263.75
2023-03-05T22:21:19.212Z,100280.81
2023-03-05T22:23:24.477Z,100281.56
2023-03-05T22:25:27.843Z,100267.28
2023-03-05T22:27:31.216Z,100263.06
2023-03-05T22:29:34.546Z,100265.84
2023-03-05T22:31:38.720Z,100264.34
2023-03-05T22:33:43.421Z,100264.59
2023-03-05T22:35:47.497Z,100265.13
2023-03-05T22:37:50.974Z,100258.09
2023-03-05T22:39:55.591Z,100263.84
2023-03-05T22:41:58.943Z,100257.09
2023-03-05T22:44:02.487Z,100267.38
2023-03-05T22:46:13.415Z,100255.50
2023-03-05T22:48:16.992Z,100245.31
2023-03-05T22:50:21.953Z,100248.50
2023-03-05T22:52:25.334Z,100144.72
2023-03-05T22:54:28.658Z,100249.34
2023-03-05T22:56:31.943Z,100251.47
2023-03-05T22:58:35.687Z,100255.44
2023-03-05T23:00:39.376Z,100250.66
2023-03-05T23:02:43.128Z,100248.41
2023-03-05T23:04:50.107Z,100249.28
2023-03-05T23:06:54.797Z,100247.53
2023-03-05T23:08:58.190Z,100240.41
2023-03-05T23:11:01.848Z,100236.03
2023-03-05T23:13:05.432Z,100240.03
2023-03-05T23:15:11.272Z,100233.75
2023-03-05T23:17:14.930Z,100243.75
2023-03-05T23:19:18.240Z,100240.44
2023-03-05T23:21:21.848Z,100229.59
2023-03-05T23:23:26.717Z,100235.72
2023-03-05T23:25:31.857Z,100231.03
2023-03-05T23:27:35.250Z,100235.50
2023-03-05T23:29:54.440Z,100233.91
2023-03-05T23:31:58.072Z,100222.91
2023-03-05T23:34:01.391Z,100232.38
2023-03-05T23:36:05.237Z,100199.38
2023-03-05T23:38:10.699Z,100227.31
2023-03-05T23:40:18.184Z,100220.66
2023-03-05T23:42:21.553Z,100217.91
2023-03-05T23:44:24.940Z,100221.31
2023-03-05T23:46:28.370Z,100220.69
2023-03-05T23:48:32.159Z,100211.25
2023-03-05T23:50:37.333Z,100225.19
2023-03-05T23:52:40.972Z,100214.88
2023-03-05T23:54:44.309Z,100206.81